createdAt,value
2023-03-26T00:01:46.946Z,66.00
2023-03-26T00:04:19.472Z,66.10
2023-03-26T00:06:50.228Z,66.00
2023-03-26T00:09:18.656Z,66.00
2023-03-26T00:11:47.177Z,66.00
2023-03-26T00:14:17.433Z,66.00
2023-03-26T00:16:47.372Z,66.00
2023-03-26T00:19:16.992Z,66.00
2023-03-26T00:21:44.799Z,66.00
2023-03-26T00:24:16.011Z,66.00
2023-03-26T00:26:44.544Z,66.00
2023-03-26T00:29:13.769Z,66.00
2023-03-26T00:31:46.416Z,66.00
2023-03-26T00:34:18.142Z,66.00
2023-03-26T00:36:47.234Z,66.00
2023-03-26T00:39:15.345Z,66.00
2023-03-26T00:41:44.201Z,66.10
2023-03-26T00:44:12.546Z,66.00
2023-03-26T00:46:41.076Z,66.00
2023-03-26T00:49:10.797Z,66.00
2023-03-26T00:51:40.265Z,66.00
2023-03-26T00:54:08.675Z,66.00
2023-03-26T00:56:36.822Z,66.00
2023-03-26T00:59:04.703Z,66.00
2023-03-26T01:01:32.630Z,65.90
2023-03-26T01:04:28.207Z,65.90
2023-03-26T01:07:02.634Z,66.10
2023-03-26T01:09:36.262Z,66.00
2023-03-26T01:12:07.778Z,66.00
2023-03-26T01:14:36.091Z,65.90
2023-03-26T01:17:05.923Z,65.90
2023-03-26T01:19:40.568Z,65.90
2023-03-26T01:22:12.164Z,66.00
2023-03-26T01:24:42.171Z,65.90
2023-03-26T01:27:18.867Z,65.90
2023-03-26T01:29:53.948Z,65.90
2023-03-26T01:32:30.774Z,65.90
2023-03-26T01:35:14.775Z,65.90
2023-03-26T01:37:53.324Z,66.00
2023-03-26T01:40:27.780Z,66.00
2023-03-26T01:43:01.260Z,66.00
2023-03-26T01:45:33.114Z,66.00
2023-03-26T01:48:01.337Z,66.00
2023-03-26T01:50:29.176Z,66.00
2023-03-26T01:52:56.992Z,66.00
2023-03-26T01:55:31.726Z,66.00
2023-03-26T01:58:10.574Z,66.00
2023-03-26T02:00:43.391Z,66.00
2023-03-26T02:03:22.858Z,66.10
2023-03-26T02:05:56.543Z,66.10
2023-03-26T02:08:35.164Z,66.00
2023-03-26T02:11:11.378Z,66.00
2023-03-26T02:13:40.869Z,66.10
2023-03-26T02:16:14.057Z,66.00
2023-03-26T02:18:42.163Z,66.00
2023-03-26T02:21:12.349Z,66.00
2023-03-26T02:23:46.643Z,66.00
2023-03-26T02:26:18.280Z,66.10
2023-03-26T02:28:58.888Z,66.10
2023-03-26T02:31:27.092Z,66.10
2023-03-26T02:33:56.567Z,66.10
2023-03-26T02:36:27.810Z,66.10
2023-03-26T02:39:00.166Z,66.10
2023-03-26T02:41:31.037Z,66.10
2023-03-26T02:44:02.786Z,66.10
2023-03-26T02:46:50.655Z,66.10
2023-03-26T02:49:38.760Z,66.10
2023-03-26T02:52:07.221Z,66.10
2023-03-26T02:54:36.988Z,66.20
2023-03-26T02:57:15.527Z,66.20
2023-03-26T02:59:57.781Z,66.20
2023-03-26T03:02:52.725Z,66.20
2023-03-26T03:05:33.886Z,66.20
2023-03-26T03:08:22.433Z,66.20
2023-03-26T03:11:16.125Z,66.20
2023-03-26T03:13:47.453Z,66.20
2023-03-26T03:16:22.193Z,66.20
2023-03-26T03:18:54.417Z,66.20
2023-03-26T03:21:23.688Z,66.20
2023-03-26T03:23:51.784Z,66.10
2023-03-26T03:26:22.502Z,66.20
2023-03-26T03:28:57.440Z,66.20
2023-03-26T03:31:26.918Z,66.20
2023-03-26T03:33:59.440Z,66.20
2023-03-26T03:36:30.401Z,66.20
2023-03-26T03:39:05.219Z,66.20
2023-03-26T03:41:33.815Z,66.20
2023-03-26T03:44:06.346Z,66.20
2023-03-26T03:46:35.376Z,66.20
2023-03-26T03:49:04.231Z,66.20
2023-03-26T03:51:36.515Z,66.20
2023-03-26T03:54:08.419Z,66.20
2023-03-26T03:56:49.050Z,66.20
2023-03-26T03:59:37.104Z,66.20
2023-03-26T04:02:07.769Z,66.20
2023-03-26T04:04:46.351Z,66.20
2023-03-26T04:07:16.721Z,66.20
2023-03-26T04:10:03.851Z,66.20
2023-03-26T04:12:51.589Z,66.20
2023-03-26T04:15:23.751Z,66.20
2023-03-26T04:17:52.111Z,66.20
2023-03-26T04:20:20.962Z,66.20
2023-03-26T04:22:50.185Z,66.20
2023-03-26T04:25:21.350Z,66.20
2023-03-26T04:28:01.469Z,66.20
2023-03-26T04:30:53.648Z,66.20
2023-03-26T04:33:35.954Z,66.10
2023-03-26T04:36:06.378Z,66.10
2023-03-26T04:38:43.290Z,66.10
2023-03-26T04:41:13.703Z,66.10
2023-03-26T04:44:02.345Z,66.10
2023-03-26T04:46:43.629Z,66.10
2023-03-26T04:49:18.614Z,66.10
2023-03-26T04:51:47.349Z,66.10
2023-03-26T04:54:35.080Z,66.10
2023-03-26T04:57:14.199Z,66.10
2023-03-26T04:59:50.092Z,66.10
2023-03-26T05:02:20.123Z,66.00
2023-03-26T05:04:53.713Z,66.00
2023-03-26T05:07:24.135Z,66.10
2023-03-26T05:10:03.342Z,66.00
2023-03-26T05:12:37.163Z,66.00
2023-03-26T05:15:11.429Z,66.00
2023-03-26T05:18:00.864Z,66.00
2023-03-26T05:20:39.380Z,66.00
2023-03-26T05:23:09.279Z,66.00
2023-03-26T05:25:39.385Z,66.00
2023-03-26T05:28:14.776Z,66.00
2023-03-26T05:30:53.182Z,65.90
2023-03-26T05:33:23.777Z,65.90
2023-03-26T05:36:02.114Z,65.80
2023-03-26T05:38:32.749Z,65.90
2023-03-26T05:41:02.775Z,65.90
2023-03-26T05:43:31.904Z,65.90
2023-03-26T05:46:10.855Z,65.80
2023-03-26T05:48:40.691Z,65.90
2023-03-26T05:51:09.117Z,65.90
2023-03-26T05:53:41.404Z,65.80
2023-03-26T05:56:27.968Z,65.70
2023-03-26T05:59:31.200Z,65.80
2023-03-26T06:02:29.334Z,65.70
2023-03-26T06:05:18.629Z,65.70
2023-03-26T06:08:10.107Z,65.80
2023-03-26T06:10:39.640Z,65.70
2023-03-26T06:13:07.637Z,65.70
2023-03-26T06:15:38.887Z,65.70
2023-03-26T06:18:27.536Z,65.70
2023-03-26T06:21:14.985Z,65.70
2023-03-26T06:23:48.931Z,65.60
2023-03-26T06:26:35.720Z,65.60
2023-03-26T06:29:22.728Z,65.60
2023-03-26T06:32:19.626Z,65.60
2023-03-26T06:34:54.734Z,65.60
2023-03-26T06:37:23.899Z,65.60
2023-03-26T06:39:57.444Z,65.60
2023-03-26T06:43:07.733Z,65.60
2023-03-26T06:45:52.320Z,65.60
2023-03-26T06:48:35.167Z,65.60
2023-03-26T06:51:17.416Z,65.60
2023-03-26T06:54:15.806Z,65.60
2023-03-26T06:56:53.295Z,65.50
2023-03-26T06:59:39.744Z,65.50
2023-03-26T07:02:26.713Z,65.50
2023-03-26T07:05:12.961Z,65.50
2023-03-26T07:07:59.457Z,65.50
2023-03-26T07:10:48.009Z,66.30
2023-03-26T07:13:37.603Z,65.50
2023-03-26T07:16:41.080Z,65.50
2023-03-26T07:19:27.458Z,65.50
2023-03-26T07:21:56.069Z,65.50
2023-03-26T07:24:43.210Z,65.50
2023-03-26T07:27:39.285Z,65.50
2023-03-26T07:30:11.319Z,65.50
2023-03-26T07:32:55.938Z,65.50
2023-03-26T07:35:47.507Z,65.50
2023-03-26T07:38:43.373Z,65.50
2023-03-26T07:41:46.309Z,65.50
2023-03-26T07:44:57.830Z,65.90
2023-03-26T07:47:53.609Z,66.10
2023-03-26T07:50:32.052Z,66.20
2023-03-26T07:53:03.269Z,66.40
2023-03-26T07:55:47.165Z,66.70
2023-03-26T07:58:55.719Z,66.70
2023-03-26T08:01:57.447Z,66.70
2023-03-26T08:04:55.046Z,66.80
2023-03-26T08:08:13.596Z,66.90
2023-03-26T08:11:08.154Z,67.00
2023-03-26T08:13:57.638Z,67.10
2023-03-26T08:16:32.712Z,67.20
2023-03-26T08:19:07.804Z,67.20
2023-03-26T08:21:40.067Z,67.20
2023-03-26T08:24:16.180Z,67.20
2023-03-26T08:26:52.275Z,67.20
2023-03-26T08:29:27.340Z,67.20
2023-03-26T08:31:57.300Z,67.20
2023-03-26T08:34:26.426Z,67.10
2023-03-26T08:36:54.182Z,67.10
2023-03-26T08:39:22.376Z,67.10
2023-03-26T08:42:53.066Z,67.00
2023-03-26T08:45:51.382Z,67.10
2023-03-26T08:48:54.721Z,67.00
2023-03-26T08:52:18.397Z,67.10
2023-03-26T08:55:10.240Z,67.00
2023-03-26T08:58:00.405Z,67.00
2023-03-26T09:00:58.958Z,67.10
2023-03-26T09:04:06.313Z,67.20
2023-03-26T09:07:17.805Z,67.10
2023-03-26T09:10:09.069Z,67.10
2023-03-26T09:13:09.830Z,67.10
2023-03-26T09:16:11.152Z,67.10
2023-03-26T09:19:20.779Z,67.20
2023-03-26T09:22:18.656Z,67.20
2023-03-26T09:25:28.650Z,67.20
2023-03-26T09:28:41.448Z,67.20
2023-03-26T09:31:31.027Z,67.20
2023-03-26T09:34:15.453Z,67.20
2023-03-26T09:36:57.154Z,67.20
2023-03-26T09:39:37.486Z,67.20
2023-03-26T09:42:15.909Z,67.20
2023-03-26T09:45:12.237Z,67.20
2023-03-26T09:48:12.966Z,67.20
2023-03-26T09:50:56.942Z,67.20
2023-03-26T09:53:53.538Z,67.10
2023-03-26T09:56:32.745Z,67.10
2023-03-26T09:59:29.257Z,67.10
2023-03-26T10:02:05.904Z,67.30
2023-03-26T10:05:00.321Z,67.10
2023-03-26T10:07:57.329Z,67.10
2023-03-26T10:10:36.062Z,67.00
2023-03-26T10:13:24.611Z,66.90
2023-03-26T10:16:07.412Z,66.70
2023-03-26T10:18:46.126Z,66.60
2023-03-26T10:21:24.998Z,66.50
2023-03-26T10:24:12.637Z,66.40
2023-03-26T10:27:09.861Z,66.40
2023-03-26T10:30:09.587Z,66.40
2023-03-26T10:32:47.755Z,66.40
2023-03-26T10:35:27.100Z,66.40
2023-03-26T10:38:09.036Z,66.30
2023-03-26T10:40:43.627Z,66.40
2023-03-26T10:44:07.872Z,66.30
2023-03-26T10:46:52.133Z,66.30
2023-03-26T10:49:41.015Z,66.30
2023-03-26T10:52:15.900Z,66.30
2023-03-26T10:54:54.324Z,66.40
2023-03-26T10:57:30.692Z,66.40
2023-03-26T11:00:02.131Z,66.60
2023-03-26T11:02:31.480Z,66.90
2023-03-26T11:05:24.871Z,67.40
2023-03-26T11:08:00.908Z,68.10
2023-03-26T11:10:40.788Z,68.50
2023-03-26T11:13:18.711Z,69.30
2023-03-26T11:15:53.263Z,69.20
2023-03-26T11:18:29.110Z,69.10
2023-03-26T11:21:18.668Z,69.20
2023-03-26T11:24:05.486Z,69.50
2023-03-26T11:26:42.343Z,69.50
2023-03-26T11:29:40.362Z,69.60
2023-03-26T11:32:13.298Z,69.70
2023-03-26T11:34:50.183Z,69.70
2023-03-26T11:37:23.821Z,69.70
2023-03-26T11:39:56.339Z,69.80
2023-03-26T11:42:25.403Z,69.70
2023-03-26T11:44:56.673Z,69.40
2023-03-26T11:47:31.770Z,68.80
2023-03-26T11:50:01.084Z,67.80
2023-03-26T11:52:30.434Z,67.40
2023-03-26T11:54:58.454Z,66.70
2023-03-26T11:57:30.721Z,65.80
2023-03-26T12:00:04.118Z,65.20
2023-03-26T12:02:41.637Z,64.90
2023-03-26T12:05:15.502Z,64.80
2023-03-26T12:07:53.280Z,64.70
2023-03-26T12:10:34.713Z,64.70
2023-03-26T12:13:07.354Z,64.80
2023-03-26T12:15:42.697Z,64.70
2023-03-26T12:18:25.267Z,64.80
2023-03-26T12:21:05.813Z,64.80
2023-03-26T12:23:45.600Z,64.90
2023-03-26T12:26:18.498Z,65.00
2023-03-26T12:28:48.510Z,65.00
2023-03-26T12:31:19.195Z,65.00
2023-03-26T12:34:04.831Z,65.10
2023-03-26T12:36:35.723Z,65.10
2023-03-26T12:40:07.284Z,65.10
2023-03-26T12:44:46.607Z,64.80
2023-03-26T12:45:15.662Z,64.30
2023-03-26T12:47:58.925Z,63.90
2023-03-26T12:50:37.725Z,63.30
2023-03-26T12:53:24.879Z,62.90
2023-03-26T12:56:02.186Z,62.60
2023-03-26T12:58:47.879Z,62.40
2023-03-26T13:01:27.442Z,62.20
2023-03-26T13:04:14.303Z,62.10
2023-03-26T13:07:00.333Z,62.10
2023-03-26T13:09:52.765Z,62.10
2023-03-26T13:12:33.917Z,62.00
2023-03-26T13:15:18.542Z,61.90
2023-03-26T13:17:54.291Z,61.80
2023-03-26T13:20:30.357Z,62.00
2023-03-26T13:23:07.668Z,62.40
2023-03-26T13:25:43.509Z,62.60
2023-03-26T13:28:23.917Z,62.80
2023-03-26T13:30:59.857Z,62.90
2023-03-26T13:33:38.338Z,63.20
2023-03-26T13:36:23.322Z,63.40
2023-03-26T13:39:04.884Z,63.50
2023-03-26T13:41:46.983Z,63.70
2023-03-26T13:44:29.696Z,63.90
2023-03-26T13:47:01.800Z,64.00
2023-03-26T13:49:37.243Z,64.00
2023-03-26T13:52:10.761Z,64.20
2023-03-26T13:54:44.550Z,64.20
2023-03-26T13:57:21.416Z,64.20
2023-03-26T13:59:57.324Z,64.30
2023-03-26T14:02:31.946Z,64.30
2023-03-26T14:05:06.241Z,64.30
2023-03-26T14:07:39.722Z,64.50
2023-03-26T14:10:12.497Z,64.40
2023-03-26T14:12:51.173Z,64.60
2023-03-26T14:15:26.775Z,64.60
2023-03-26T14:17:59.704Z,64.60
2023-03-26T14:21:14.072Z,64.70
2023-03-26T14:24:10.283Z,65.10
2023-03-26T14:26:55.973Z,63.90
2023-03-26T14:29:31.698Z,62.10
2023-03-26T14:32:12.149Z,59.70
2023-03-26T14:34:54.086Z,59.80
2023-03-26T14:37:48.135Z,60.00
2023-03-26T14:40:48.783Z,60.00
2023-03-26T14:43:49.101Z,59.80
2023-03-26T14:46:27.840Z,59.50
2023-03-26T14:49:26.471Z,59.30
2023-03-26T14:52:02.292Z,59.20
2023-03-26T14:54:34.334Z,59.10
2023-03-26T14:57:40.096Z,59.10
2023-03-26T15:00:39.192Z,59.10
2023-03-26T15:03:55.447Z,59.10
2023-03-26T15:06:54.062Z,59.20
2023-03-26T15:09:49.981Z,59.20
2023-03-26T15:12:32.715Z,59.30
2023-03-26T15:15:42.418Z,59.30
2023-03-26T15:18:35.260Z,59.40
2023-03-26T15:21:30.905Z,59.50
2023-03-26T15:24:24.166Z,59.60
2023-03-26T15:27:38.739Z,59.60
2023-03-26T15:30:34.814Z,59.70
2023-03-26T15:33:22.546Z,59.90
2023-03-26T15:36:10.649Z,60.00
2023-03-26T15:39:18.652Z,60.20
2023-03-26T15:41:52.088Z,60.30
2023-03-26T15:44:53.073Z,60.50
2023-03-26T15:47:57.147Z,60.60
2023-03-26T15:50:49.202Z,60.80
2023-03-26T15:53:27.401Z,61.00
2023-03-26T15:56:11.214Z,61.10
2023-03-26T15:58:48.113Z,61.20
2023-03-26T16:01:27.386Z,61.30
2023-03-26T16:04:04.831Z,61.40
2023-03-26T16:06:41.371Z,61.50
2023-03-26T16:09:35.181Z,61.60
2023-03-26T16:12:31.723Z,61.70
2023-03-26T16:15:22.144Z,61.80
2023-03-26T16:18:25.862Z,61.90
2023-03-26T16:20:55.644Z,62.10
2023-03-26T16:23:30.612Z,62.00
2023-03-26T16:26:12.025Z,62.20
2023-03-26T16:29:06.143Z,62.40
2023-03-26T16:31:39.485Z,62.40
2023-03-26T16:34:26.101Z,62.40
2023-03-26T16:36:54.452Z,62.40
2023-03-26T16:39:38.214Z,62.50
2023-03-26T16:42:37.380Z,62.60
2023-03-26T16:45:19.882Z,62.50
2023-03-26T16:47:57.551Z,62.50
2023-03-26T16:50:34.023Z,62.60
2023-03-26T16:53:25.656Z,62.50
2023-03-26T16:55:58.433Z,62.60
2023-03-26T16:58:34.330Z,62.60
2023-03-26T17:01:10.853Z,62.60
2023-03-26T17:03:45.585Z,62.70
2023-03-26T17:06:28.806Z,62.70
2023-03-26T17:09:09.375Z,62.70
2023-03-26T17:11:49.444Z,62.70
2023-03-26T17:14:31.962Z,62.70
2023-03-26T17:17:24.527Z,62.70
2023-03-26T17:19:59.845Z,62.80
2023-03-26T17:22:37.923Z,62.80
2023-03-26T17:25:33.128Z,62.90
2023-03-26T17:28:27.401Z,62.90
2023-03-26T17:31:04.280Z,62.90
2023-03-26T17:33:36.110Z,62.90
2023-03-26T17:36:30.948Z,62.90
2023-03-26T17:39:21.060Z,62.90
2023-03-26T17:42:18.675Z,62.80
2023-03-26T17:44:49.867Z,62.70
2023-03-26T17:47:25.705Z,62.80
2023-03-26T17:50:01.097Z,62.90
2023-03-26T17:52:42.712Z,62.90
2023-03-26T17:55:14.611Z,63.70
2023-03-26T17:57:44.749Z,62.90
2023-03-26T18:00:18.512Z,62.90
2023-03-26T18:02:53.874Z,62.90
2023-03-26T18:05:26.425Z,63.00
2023-03-26T18:08:23.897Z,63.00
2023-03-26T18:11:25.550Z,63.10
2023-03-26T18:14:17.948Z,63.20
2023-03-26T18:16:49.255Z,63.20
2023-03-26T18:19:19.412Z,63.30
2023-03-26T18:21:50.617Z,63.30
2023-03-26T18:24:24.314Z,63.30
2023-03-26T18:26:58.230Z,63.40
2023-03-26T18:29:28.411Z,63.50
2023-03-26T18:32:00.264Z,63.50
2023-03-26T18:34:31.427Z,63.60
2023-03-26T18:37:14.654Z,63.60
2023-03-26T18:39:42.954Z,63.70
2023-03-26T18:42:22.560Z,63.70
2023-03-26T18:44:53.165Z,63.80
2023-03-26T18:47:21.561Z,63.80
2023-03-26T18:49:53.150Z,63.90
2023-03-26T18:52:22.614Z,63.80
2023-03-26T18:54:53.384Z,64.00
2023-03-26T18:57:23.630Z,64.00
2023-03-26T18:59:54.021Z,64.00
2023-03-26T19:02:22.774Z,64.10
2023-03-26T19:04:54.279Z,64.10
2023-03-26T19:07:26.431Z,64.10
2023-03-26T19:09:56.494Z,64.20
2023-03-26T19:12:30.800Z,64.10
2023-03-26T19:15:04.384Z,64.10
2023-03-26T19:17:35.241Z,64.10
2023-03-26T19:20:07.830Z,64.00
2023-03-26T19:22:37.501Z,64.00
2023-03-26T19:25:06.180Z,64.00
2023-03-26T19:27:34.457Z,63.80
2023-03-26T19:30:02.428Z,63.90
2023-03-26T19:32:32.713Z,63.70
2023-03-26T19:35:02.059Z,63.70
2023-03-26T19:37:32.330Z,63.70
2023-03-26T19:40:14.745Z,63.50
2023-03-26T19:42:45.106Z,63.50
2023-03-26T19:45:17.458Z,63.40
2023-03-26T19:47:48.678Z,63.40
2023-03-26T19:50:25.464Z,63.30
2023-03-26T19:53:18.673Z,63.30
2023-03-26T19:55:59.714Z,63.20
2023-03-26T19:58:27.941Z,63.10
2023-03-26T20:00:56.976Z,63.10
2023-03-26T20:03:29.007Z,63.00
2023-03-26T20:05:57.234Z,63.00
2023-03-26T20:08:27.004Z,63.00
2023-03-26T20:10:58.494Z,62.90
2023-03-26T20:13:26.603Z,62.90
2023-03-26T20:16:05.845Z,62.90
2023-03-26T20:18:34.573Z,62.90
2023-03-26T20:21:02.496Z,63.00
2023-03-26T20:23:30.258Z,63.00
2023-03-26T20:25:59.379Z,63.00
2023-03-26T20:28:27.142Z,62.90
2023-03-26T20:30:55.162Z,63.00
2023-03-26T20:33:26.516Z,63.00
2023-03-26T20:35:55.302Z,63.00
2023-03-26T20:38:36.548Z,63.00
2023-03-26T20:41:12.807Z,63.00
2023-03-26T20:43:40.769Z,63.10
2023-03-26T20:46:11.485Z,63.10
2023-03-26T20:48:39.575Z,63.20
2023-03-26T20:51:07.582Z,63.20
2023-03-26T20:53:35.618Z,63.20
2023-03-26T20:56:03.792Z,63.30
2023-03-26T20:58:33.173Z,63.30
2023-03-26T21:01:02.763Z,63.40
2023-03-26T21:03:30.869Z,63.40
2023-03-26T21:06:01.245Z,63.40
2023-03-26T21:08:35.164Z,63.40
2023-03-26T21:11:04.708Z,63.50
2023-03-26T21:13:39.836Z,63.50
2023-03-26T21:16:09.049Z,63.50
2023-03-26T21:18:37.327Z,63.50
2023-03-26T21:21:21.157Z,63.50
2023-03-26T21:23:59.097Z,63.60
2023-03-26T21:26:32.926Z,63.60
2023-03-26T21:29:02.655Z,63.60
2023-03-26T21:31:34.274Z,63.70
2023-03-26T21:34:02.843Z,63.70
2023-03-26T21:36:31.310Z,63.70
2023-03-26T21:38:59.884Z,63.80
2023-03-26T21:41:35.953Z,63.80
2023-03-26T21:44:05.313Z,63.80
2023-03-26T21:46:33.920Z,63.90
2023-03-26T21:49:02.110Z,63.90
2023-03-26T21:51:32.056Z,63.90
2023-03-26T21:54:00.296Z,63.80
2023-03-26T21:56:40.604Z,64.00
2023-03-26T21:59:19.318Z,64.00
2023-03-26T22:01:52.655Z,64.00
2023-03-26T22:04:27.243Z,63.90
2023-03-26T22:07:00.781Z,64.00
2023-03-26T22:09:36.340Z,64.00
2023-03-26T22:12:04.863Z,64.00
2023-03-26T22:14:34.368Z,64.00
2023-03-26T22:17:02.115Z,64.00
2023-03-26T22:19:30.529Z,64.00
2023-03-26T22:21:59.968Z,64.00
2023-03-26T22:24:28.160Z,64.10
2023-03-26T22:26:55.943Z,64.10
2023-03-26T22:29:23.962Z,64.10
2023-03-26T22:31:53.084Z,64.10
2023-03-26T22:34:21.178Z,64.10
2023-03-26T22:36:48.986Z,64.10
2023-03-26T22:39:17.076Z,64.20
2023-03-26T22:41:44.883Z,64.20
2023-03-26T22:44:20.242Z,64.20
2023-03-26T22:46:51.085Z,64.20
2023-03-26T22:49:20.368Z,64.20
2023-03-26T22:51:48.164Z,64.20
2023-03-26T22:54:15.910Z,64.30
2023-03-26T22:56:43.875Z,64.30
2023-03-26T22:59:11.706Z,64.40
2023-03-26T23:01:39.919Z,64.40
2023-03-26T23:04:08.222Z,64.40
2023-03-26T23:06:37.579Z,64.40
2023-03-26T23:09:07.016Z,64.40
2023-03-26T23:11:35.028Z,64.40
2023-03-26T23:14:03.041Z,64.50
2023-03-26T23:16:31.612Z,64.50
2023-03-26T23:18:59.417Z,64.50
2023-03-26T23:21:27.163Z,64.50
2023-03-26T23:23:56.280Z,64.50
2023-03-26T23:26:24.535Z,64.50
2023-03-26T23:28:52.451Z,64.50
2023-03-26T23:31:20.441Z,64.50
2023-03-26T23:33:50.188Z,64.50
2023-03-26T23:36:19.970Z,64.50
2023-03-26T23:38:49.148Z,64.50
2023-03-26T23:41:21.258Z,64.60
2023-03-26T23:43:53.424Z,64.60
2023-03-26T23:46:23.943Z,64.60
2023-03-26T23:48:52.543Z,64.60
2023-03-26T23:51:21.209Z,64.60
2023-03-26T23:53:49.992Z,64.60
2023-03-26T23:56:19.200Z,64.60
2023-03-26T23:58:47.661Z,64.60
